createdAt,value
2024-03-16T00:00:26.351Z,90.10
2024-03-16T00:02:54.464Z,90.20
2024-03-16T00:05:22.105Z,90.30
2024-03-16T00:07:50.816Z,90.40
2024-03-16T00:10:18.409Z,90.40
2024-03-16T00:12:46.034Z,90.30
2024-03-16T00:15:13.651Z,90.30
2024-03-16T00:17:41.159Z,90.20
2024-03-16T00:20:11.804Z,90.20
2024-03-16T00:22:39.644Z,90.10
2024-03-16T00:25:07.740Z,90.00
2024-03-16T00:27:35.597Z,90.00
2024-03-16T00:30:05.522Z,90.00
2024-03-16T00:32:33.248Z,89.90
2024-03-16T00:35:00.920Z,89.90
2024-03-16T00:37:28.896Z,89.90
2024-03-16T00:39:56.622Z,90.00
2024-03-16T00:42:24.261Z,89.90
2024-03-16T00:44:52.022Z,90.00
2024-03-16T00:47:19.856Z,90.00
2024-03-16T00:49:49.116Z,90.00
2024-03-16T00:52:17.201Z,90.00
2024-03-16T00:54:44.945Z,90.00
2024-03-16T00:57:12.525Z,90.00
2024-03-16T00:59:40.078Z,90.00
2024-03-16T01:02:07.600Z,90.00
2024-03-16T01:04:35.365Z,90.00
2024-03-16T01:07:03.220Z,90.10
2024-03-16T01:09:31.944Z,90.30
2024-03-16T01:11:59.802Z,90.40
2024-03-16T01:14:27.563Z,90.60
2024-03-16T01:16:55.388Z,90.60
2024-03-16T01:19:23.080Z,90.60
2024-03-16T01:21:50.910Z,90.60
2024-03-16T01:24:18.809Z,90.70
2024-03-16T01:26:47.537Z,90.70
2024-03-16T01:29:17.325Z,90.70
2024-03-16T01:31:45.261Z,90.80
2024-03-16T01:34:12.979Z,90.90
2024-03-16T01:36:43.568Z,90.90
2024-03-16T01:39:13.434Z,90.80
2024-03-16T01:41:41.613Z,91.00
2024-03-16T01:44:13.032Z,91.00
2024-03-16T01:46:42.567Z,91.10
2024-03-16T01:49:10.568Z,91.30
2024-03-16T01:51:38.861Z,91.30
2024-03-16T01:54:06.731Z,91.20
2024-03-16T01:56:35.458Z,91.10
2024-03-16T01:59:03.806Z,91.20
2024-03-16T02:01:32.699Z,91.30
2024-03-16T02:04:00.833Z,91.50
2024-03-16T02:06:30.234Z,91.50
2024-03-16T02:08:58.353Z,91.40
2024-03-16T02:11:26.270Z,91.40
2024-03-16T02:13:55.316Z,91.40
2024-03-16T02:16:22.894Z,91.50
2024-03-16T02:18:51.693Z,91.50
2024-03-16T02:21:19.504Z,91.60
2024-03-16T02:23:48.285Z,91.70
2024-03-16T02:26:16.485Z,91.60
2024-03-16T02:28:44.116Z,91.60
2024-03-16T02:31:11.880Z,91.40
2024-03-16T02:33:39.500Z,91.40
2024-03-16T02:36:07.127Z,91.40
2024-03-16T02:38:35.533Z,91.50
2024-03-16T02:41:08.670Z,91.80
2024-03-16T02:43:36.081Z,91.80
2024-03-16T02:46:06.783Z,91.90
2024-03-16T02:48:34.565Z,91.90
2024-03-16T02:51:03.017Z,91.90
2024-03-16T02:53:30.730Z,91.80
2024-03-16T02:55:58.314Z,91.90
2024-03-16T02:58:25.770Z,91.90
2024-03-16T03:00:54.143Z,91.80
2024-03-16T03:03:21.756Z,91.90
2024-03-16T03:05:51.065Z,91.90
2024-03-16T03:08:18.786Z,92.20
2024-03-16T03:10:46.585Z,92.20
2024-03-16T03:13:14.261Z,92.20
2024-03-16T03:15:42.257Z,92.10
2024-03-16T03:18:09.899Z,91.80
2024-03-16T03:20:38.175Z,91.60
2024-03-16T03:23:06.835Z,91.60
2024-03-16T03:25:35.928Z,91.80
2024-03-16T03:28:05.204Z,91.90
2024-03-16T03:30:32.956Z,92.10
2024-03-16T03:33:00.867Z,92.10
2024-03-16T03:35:29.885Z,92.10
2024-03-16T03:37:57.377Z,92.20
2024-03-16T03:40:25.048Z,92.30
2024-03-16T03:42:57.004Z,92.50
2024-03-16T03:45:51.152Z,92.50
2024-03-16T03:48:24.959Z,92.40
2024-03-16T03:50:52.998Z,92.30
2024-03-16T03:53:21.590Z,92.30
2024-03-16T03:55:49.844Z,92.30
2024-03-16T03:58:18.365Z,92.40
2024-03-16T04:00:46.745Z,92.40
2024-03-16T04:03:14.447Z,92.50
2024-03-16T04:05:43.198Z,92.60
2024-03-16T04:08:10.883Z,92.50
2024-03-16T04:10:39.051Z,92.50
2024-03-16T04:13:06.618Z,92.30
2024-03-16T04:15:34.398Z,92.30
2024-03-16T04:18:02.038Z,92.30
2024-03-16T04:20:29.730Z,92.10
2024-03-16T04:22:57.446Z,92.00
2024-03-16T04:25:25.039Z,92.10
2024-03-16T04:27:52.694Z,92.40
2024-03-16T04:30:20.475Z,92.40
2024-03-16T04:32:48.179Z,92.50
2024-03-16T04:35:16.238Z,92.40
2024-03-16T04:37:43.862Z,92.50
2024-03-16T04:40:12.302Z,92.60
2024-03-16T04:42:40.454Z,92.80
2024-03-16T04:45:08.939Z,92.80
2024-03-16T04:47:36.629Z,92.50
2024-03-16T04:50:04.374Z,92.30
2024-03-16T04:52:31.822Z,92.30
2024-03-16T04:54:59.519Z,92.40
2024-03-16T04:57:27.211Z,92.40
2024-03-16T04:59:54.829Z,92.50
2024-03-16T05:02:22.350Z,92.60
2024-03-16T05:04:50.002Z,92.60
2024-03-16T05:07:17.496Z,92.60
2024-03-16T05:09:46.012Z,92.80
2024-03-16T05:12:14.679Z,92.90
2024-03-16T05:14:42.632Z,93.00
2024-03-16T05:17:10.204Z,93.00
2024-03-16T05:19:37.730Z,92.90
2024-03-16T05:22:06.677Z,92.90
2024-03-16T05:24:34.495Z,92.90
2024-03-16T05:27:02.222Z,92.90
2024-03-16T05:29:30.151Z,92.90
2024-03-16T05:31:59.373Z,92.90
2024-03-16T05:34:27.624Z,92.90
2024-03-16T05:36:55.441Z,92.80
2024-03-16T05:39:23.447Z,92.70
2024-03-16T05:41:51.135Z,92.70
2024-03-16T05:44:18.808Z,92.70
2024-03-16T05:46:46.498Z,92.70
2024-03-16T05:49:14.237Z,92.80
2024-03-16T05:51:42.603Z,92.70
2024-03-16T05:54:10.289Z,92.70
2024-03-16T05:56:38.627Z,92.70
2024-03-16T05:59:10.128Z,92.90
2024-03-16T06:01:38.350Z,93.00
2024-03-16T06:04:06.440Z,93.10
2024-03-16T06:06:35.873Z,93.10
2024-03-16T06:09:06.883Z,93.30
2024-03-16T06:11:36.470Z,93.50
2024-03-16T06:14:05.941Z,93.60
2024-03-16T06:16:33.939Z,93.50
2024-03-16T06:19:01.904Z,93.30
2024-03-16T06:21:30.760Z,93.20
2024-03-16T06:23:59.522Z,93.20
2024-03-16T06:26:29.533Z,93.20
2024-03-16T06:29:06.537Z,93.10
2024-03-16T06:31:36.897Z,93.10
2024-03-16T06:34:07.541Z,93.10
2024-03-16T06:36:36.019Z,93.00
2024-03-16T06:39:13.009Z,93.00
2024-03-16T06:41:41.145Z,93.00
2024-03-16T06:44:09.223Z,93.00
2024-03-16T06:46:37.914Z,92.90
2024-03-16T06:49:09.124Z,92.90
2024-03-16T06:51:38.202Z,92.90
2024-03-16T06:54:07.067Z,92.80
2024-03-16T06:56:35.533Z,92.80
2024-03-16T06:59:04.705Z,92.70
2024-03-16T07:01:33.316Z,92.70
2024-03-16T07:04:05.178Z,92.70
2024-03-16T07:06:34.543Z,92.70
2024-03-16T07:09:05.162Z,92.80
2024-03-16T07:11:34.904Z,92.80
2024-03-16T07:14:05.531Z,92.90
2024-03-16T07:16:34.772Z,92.90
2024-03-16T07:19:04.782Z,92.80
2024-03-16T07:21:35.365Z,92.80
2024-03-16T07:24:05.257Z,92.80
2024-03-16T07:26:37.217Z,92.60
2024-03-16T07:29:06.595Z,92.50
2024-03-16T07:31:36.741Z,92.50
2024-03-16T07:34:07.733Z,92.40
2024-03-16T07:36:41.022Z,92.50
2024-03-16T07:39:13.193Z,92.40
2024-03-16T07:41:43.788Z,92.40
2024-03-16T07:44:14.563Z,92.50
2024-03-16T07:46:44.555Z,92.40
2024-03-16T07:49:16.470Z,92.40
2024-03-16T07:51:47.139Z,92.40
2024-03-16T07:54:17.761Z,92.40
2024-03-16T07:56:50.822Z,92.30
2024-03-16T07:59:21.905Z,92.20
2024-03-16T08:01:51.954Z,92.10
2024-03-16T08:04:22.940Z,92.10
2024-03-16T08:06:53.446Z,92.10
2024-03-16T08:09:26.190Z,92.10
2024-03-16T08:11:57.042Z,92.00
2024-03-16T08:14:33.968Z,92.00
2024-03-16T08:17:08.085Z,92.00
2024-03-16T08:19:41.271Z,92.00
2024-03-16T08:22:13.424Z,91.90
2024-03-16T08:24:45.249Z,92.00
2024-03-16T08:27:17.494Z,92.10
2024-03-16T08:29:48.846Z,92.20
2024-03-16T08:32:20.378Z,92.10
2024-03-16T08:34:52.310Z,92.00
2024-03-16T08:37:27.322Z,92.10
2024-03-16T08:39:59.973Z,92.20
2024-03-16T08:42:32.240Z,92.20
2024-03-16T08:45:07.258Z,92.20
2024-03-16T08:47:39.338Z,92.30
2024-03-16T08:50:12.491Z,92.10
2024-03-16T08:52:45.970Z,92.20
2024-03-16T08:55:20.747Z,92.40
2024-03-16T08:57:54.207Z,92.30
2024-03-16T09:00:28.476Z,92.20
2024-03-16T09:03:02.829Z,92.10
2024-03-16T09:05:37.204Z,91.90
2024-03-16T09:08:09.903Z,91.80
2024-03-16T09:10:42.718Z,91.60
2024-03-16T09:13:19.464Z,91.20
2024-03-16T09:15:52.635Z,91.20
2024-03-16T09:18:26.091Z,91.00
2024-03-16T09:20:59.344Z,90.70
2024-03-16T09:23:32.324Z,90.40
2024-03-16T09:26:07.139Z,89.90
2024-03-16T09:28:40.571Z,89.60
2024-03-16T09:31:14.197Z,89.10
2024-03-16T09:33:48.306Z,88.90
2024-03-16T09:36:23.180Z,88.50
2024-03-16T09:38:56.813Z,88.20
2024-03-16T09:41:32.678Z,87.90
